Time;durP1;ratioP1;P1;durP2;ratioP2;P2;SDS_P1;SDS_P2;PMS_P1;PMS_P2;Temp;Humidity;BMP_temperature;BMP_pressure;BME280_temperature;BME280_humidity;BME280_pressure;Samples;Min_cycle;Max_cycle;Signal;HPM_P1;HPM_P2
2022/01/05 00:01:26;;;;;;;41.35;25.45;;;;;;;;;;5032039;28;20056;-84
2022/01/05 00:03:53;;;;;;;50.13;29.00;;;;;;;;;;5014635;28;20083;-83
2022/01/05 00:06:19;;;;;;;45.30;27.77;;;;;;;;;;5032454;28;20068;-82
2022/01/05 00:08:45;;;;;;;55.63;29.55;;;;;;;;;;5032351;28;20026;-84
2022/01/05 00:11:12;;;;;;;46.08;26.23;;;;;;;;;;5025333;28;20030;-83
2022/01/05 00:13:38;;;;;;;50.97;28.67;;;;;;;;;;5028248;28;20480;-83
2022/01/05 00:16:05;;;;;;;54.80;30.25;;;;;;;;;;5034011;28;20427;-83
2022/01/05 00:18:32;;;;;;;47.25;27.70;;;;;;;;;;5032104;28;20026;-83
2022/01/05 00:20:59;;;;;;;51.85;29.75;;;;;;;;;;5021810;28;20037;-81
2022/01/05 00:23:26;;;;;;;47.95;30.38;;;;;;;;;;5018647;28;20037;-84
2022/01/05 00:25:52;;;;;;;52.83;31.38;;;;;;;;;;5035710;28;20417;-83
2022/01/05 00:28:19;;;;;;;50.00;29.88;;;;;;;;;;5035948;28;20022;-83
2022/01/05 00:30:45;;;;;;;46.92;28.58;;;;;;;;;;5035536;28;20051;-81
2022/01/05 00:33:13;;;;;;;45.80;26.90;;;;;;;;;;5018308;28;20061;-84
2022/01/05 00:35:39;;;;;;;49.08;27.65;;;;;;;;;;5035313;28;20112;-82
2022/01/05 00:38:05;;;;;;;46.13;26.67;;;;;;;;;;5015890;28;20393;-82
2022/01/05 00:40:31;;;;;;;52.58;29.30;;;;;;;;;;5035260;28;20099;-84
2022/01/05 00:42:58;;;;;;;50.53;28.50;;;;;;;;;;5035395;28;20021;-83
2022/01/05 00:45:25;;;;;;;63.08;32.13;;;;;;;;;;5017674;28;20542;-84
2022/01/05 00:47:51;;;;;;;53.55;30.63;;;;;;;;;;5035656;28;20300;-83
2022/01/05 00:50:17;;;;;;;54.25;31.67;;;;;;;;;;5035612;28;20056;-84
2022/01/05 00:52:44;;;;;;;56.03;33.50;;;;;;;;;;5033391;28;20060;-83
2022/01/05 00:55:10;;;;;;;63.78;35.83;;;;;;;;;;5035037;28;20029;-82
2022/01/05 00:57:36;;;;;;;57.28;34.83;;;;;;;;;;5017404;28;20033;-82
2022/01/05 01:00:04;;;;;;;68.22;38.67;;;;;;;;;;5038157;28;20477;-81
2022/01/05 01:02:30;;;;;;;69.00;38.83;;;;;;;;;;5041517;28;20025;-83
2022/01/05 01:04:57;;;;;;;66.65;38.28;;;;;;;;;;5035572;28;20029;-83
2022/01/05 01:07:23;;;;;;;75.03;40.55;;;;;;;;;;5034520;28;20022;-83
2022/01/05 01:09:49;;;;;;;76.45;41.35;;;;;;;;;;4998003;28;20488;-85
2022/01/05 01:12:16;;;;;;;72.47;41.03;;;;;;;;;;5017008;28;20083;-83
2022/01/05 01:14:42;;;;;;;91.45;46.13;;;;;;;;;;5017413;28;20033;-85
2022/01/05 01:17:08;;;;;;;84.88;46.17;;;;;;;;;;5033977;28;20037;-83
2022/01/05 01:19:34;;;;;;;76.25;41.22;;;;;;;;;;5034137;28;20061;-82
2022/01/05 01:22:01;;;;;;;76.07;41.63;;;;;;;;;;5016085;28;20030;-82
2022/01/05 01:24:27;;;;;;;72.03;40.83;;;;;;;;;;5028518;28;20029;-85
2022/01/05 01:26:54;;;;;;;79.22;43.45;;;;;;;;;;5034987;28;20025;-84
2022/01/05 01:29:20;;;;;;;79.47;43.72;;;;;;;;;;5034530;28;20469;-83
2022/01/05 01:31:47;;;;;;;74.63;41.85;;;;;;;;;;5034110;28;20031;-83
2022/01/05 01:34:14;;;;;;;62.78;37.63;;;;;;;;;;5016614;28;20397;-84
2022/01/05 01:36:40;;;;;;;55.22;33.53;;;;;;;;;;5026349;28;20476;-81
2022/01/05 01:39:07;;;;;;;53.78;31.88;;;;;;;;;;5033535;28;20033;-82
2022/01/05 01:41:33;;;;;;;47.63;30.38;;;;;;;;;;5028331;28;20037;-83
2022/01/05 01:43:59;;;;;;;47.58;28.55;;;;;;;;;;5034162;28;20029;-84
2022/01/05 01:46:26;;;;;;;38.75;24.23;;;;;;;;;;5016295;28;20075;-84
2022/01/05 01:48:52;;;;;;;48.33;30.13;;;;;;;;;;5016506;28;20435;-83
2022/01/05 01:51:18;;;;;;;49.28;30.80;;;;;;;;;;5016247;28;20048;-84
2022/01/05 01:53:45;;;;;;;61.20;36.15;;;;;;;;;;5024985;28;20476;-84
2022/01/05 01:56:12;;;;;;;58.10;33.67;;;;;;;;;;5027694;28;20503;-84
2022/01/05 01:58:38;;;;;;;53.53;31.95;;;;;;;;;;5031140;28;20033;-83
2022/01/05 02:01:04;;;;;;;61.63;30.65;;;;;;;;;;5016706;28;20033;-84
2022/01/05 02:03:31;;;;;;;48.90;27.48;;;;;;;;;;5033872;28;20030;-84
2022/01/05 02:05:57;;;;;;;47.80;27.35;;;;;;;;;;5033549;28;20038;-84
2022/01/05 02:08:24;;;;;;;45.67;26.77;;;;;;;;;;5020006;28;20117;-82
2022/01/05 02:10:50;;;;;;;44.67;26.75;;;;;;;;;;5021034;28;20033;-82
2022/01/05 02:13:17;;;;;;;49.38;25.83;;;;;;;;;;5041460;28;20030;-84
2022/01/05 02:15:44;;;;;;;43.42;24.73;;;;;;;;;;5040756;28;20035;-84
2022/01/05 02:18:21;;;;;;;38.58;22.38;;;;;;;;;;5040001;28;20492;-83
2022/01/05 02:20:48;;;;;;;43.42;25.67;;;;;;;;;;5021939;28;20049;-83
2022/01/05 02:23:14;;;;;;;47.47;25.08;;;;;;;;;;5029566;28;20124;-84
2022/01/05 02:25:41;;;;;;;40.65;23.95;;;;;;;;;;5021448;28;20061;-84
2022/01/05 02:28:07;;;;;;;56.97;27.33;;;;;;;;;;5026687;28;20037;-83
2022/01/05 02:30:33;;;;;;;42.38;25.13;;;;;;;;;;5036982;28;20032;-82
2022/01/05 02:33:00;;;;;;;39.22;24.15;;;;;;;;;;5025414;28;20474;-84
2022/01/05 02:35:26;;;;;;;39.03;23.08;;;;;;;;;;5028864;28;20143;-84
2022/01/05 02:37:54;;;;;;;38.80;23.83;;;;;;;;;;5022001;28;20488;-84
2022/01/05 02:40:22;;;;;;;35.67;22.55;;;;;;;;;;5028222;28;20041;-82
2022/01/05 02:42:49;;;;;;;40.80;21.27;;;;;;;;;;5006538;28;20045;-83
2022/01/05 02:45:16;;;;;;;41.33;22.90;;;;;;;;;;5028620;28;20029;-83
2022/01/05 02:47:42;;;;;;;35.15;21.90;;;;;;;;;;5006693;28;20127;-83
2022/01/05 02:50:09;;;;;;;44.25;25.52;;;;;;;;;;5028195;28;20554;-83
2022/01/05 02:52:36;;;;;;;40.42;24.27;;;;;;;;;;5011301;28;20017;-84
2022/01/05 02:55:03;;;;;;;35.08;21.48;;;;;;;;;;5027046;28;20033;-84
2022/01/05 02:57:30;;;;;;;31.23;19.63;;;;;;;;;;5025227;28;20057;-82
2022/01/05 02:59:57;;;;;;;38.70;22.75;;;;;;;;;;5026360;28;20026;-82
2022/01/05 03:02:24;;;;;;;41.08;22.30;;;;;;;;;;5026027;28;20057;-83
2022/01/05 03:04:50;;;;;;;36.67;20.40;;;;;;;;;;5030999;28;20025;-83
2022/01/05 03:07:16;;;;;;;34.22;21.52;;;;;;;;;;5025201;28;20370;-84
2022/01/05 03:09:43;;;;;;;39.50;21.77;;;;;;;;;;5021176;28;20018;-82
2022/01/05 03:12:10;;;;;;;37.67;23.27;;;;;;;;;;5022024;28;20480;-82
2022/01/05 03:14:36;;;;;;;40.42;24.88;;;;;;;;;;5009615;28;20034;-82
2022/01/05 03:17:03;;;;;;;48.90;27.05;;;;;;;;;;5023648;28;20465;-82
2022/01/05 03:19:29;;;;;;;50.03;28.55;;;;;;;;;;5004060;28;20084;-83
2022/01/05 03:21:56;;;;;;;51.50;29.48;;;;;;;;;;5009481;28;20030;-84
2022/01/05 03:24:22;;;;;;;55.08;31.95;;;;;;;;;;5007978;28;20022;-82
2022/01/05 03:26:48;;;;;;;57.83;33.05;;;;;;;;;;5005762;28;20037;-82
2022/01/05 03:29:15;;;;;;;57.22;32.95;;;;;;;;;;5009383;28;20034;-85
2022/01/05 03:31:41;;;;;;;50.83;30.73;;;;;;;;;;5006162;28;20033;-82
2022/01/05 03:34:09;;;;;;;48.90;29.55;;;;;;;;;;5003649;28;20520;-82
2022/01/05 03:36:35;;;;;;;44.22;26.90;;;;;;;;;;4999861;28;20038;-83
2022/01/05 03:39:01;;;;;;;47.22;27.17;;;;;;;;;;5005477;28;20097;-85
2022/01/05 03:41:28;;;;;;;40.22;24.02;;;;;;;;;;5002232;28;20076;-82
2022/01/05 03:43:54;;;;;;;41.28;24.70;;;;;;;;;;5003011;28;20041;-85
2022/01/05 03:46:20;;;;;;;52.53;30.25;;;;;;;;;;5003740;28;20026;-85
2022/01/05 03:48:47;;;;;;;46.88;28.85;;;;;;;;;;5005741;28;20026;-82
2022/01/05 03:51:13;;;;;;;45.38;26.95;;;;;;;;;;4985325;28;20030;-84
2022/01/05 03:53:39;;;;;;;44.22;27.88;;;;;;;;;;5001841;28;20045;-84
2022/01/05 03:56:05;;;;;;;53.50;29.30;;;;;;;;;;5009480;28;20049;-83
2022/01/05 03:58:32;;;;;;;51.75;28.23;;;;;;;;;;5009794;28;20065;-82
2022/01/05 04:00:58;;;;;;;62.10;32.28;;;;;;;;;;5009537;28;20041;-85
2022/01/05 04:03:24;;;;;;;48.55;28.80;;;;;;;;;;4990691;28;20569;-83
2022/01/05 04:05:51;;;;;;;52.80;32.78;;;;;;;;;;4991225;28;20026;-82
2022/01/05 04:08:17;;;;;;;50.75;31.35;;;;;;;;;;5007598;28;20385;-83
2022/01/05 04:10:43;;;;;;;60.40;34.95;;;;;;;;;;5010610;28;20588;-84
2022/01/05 04:13:10;;;;;;;61.15;34.63;;;;;;;;;;5004467;28;20041;-83
2022/01/05 04:15:36;;;;;;;62.40;35.53;;;;;;;;;;5007218;28;20036;-86
2022/01/05 04:18:02;;;;;;;56.40;34.92;;;;;;;;;;5011396;28;20066;-84
2022/01/05 04:20:29;;;;;;;60.35;36.58;;;;;;;;;;5029649;28;20045;-82
2022/01/05 04:22:55;;;;;;;74.63;39.63;;;;;;;;;;5030915;28;20519;-83
2022/01/05 04:25:21;;;;;;;73.85;41.05;;;;;;;;;;5031387;28;20123;-82
2022/01/05 04:27:48;;;;;;;70.57;41.78;;;;;;;;;;5013926;28;20528;-82
2022/01/05 04:30:14;;;;;;;87.53;45.88;;;;;;;;;;5025529;28;20046;-83
2022/01/05 04:32:40;;;;;;;94.32;48.75;;;;;;;;;;5026304;28;20039;-83
2022/01/05 04:35:07;;;;;;;102.43;54.75;;;;;;;;;;5010508;28;20034;-83
2022/01/05 04:37:33;;;;;;;104.57;52.78;;;;;;;;;;5032065;28;20139;-84
2022/01/05 04:40:00;;;;;;;125.32;59.30;;;;;;;;;;5030095;28;20049;-82
2022/01/05 04:42:27;;;;;;;139.48;62.28;;;;;;;;;;5034570;28;20022;-85
2022/01/05 04:44:54;;;;;;;132.55;60.63;;;;;;;;;;5031907;28;20108;-83
2022/01/05 04:47:20;;;;;;;148.70;65.03;;;;;;;;;;5033704;28;20524;-85
2022/01/05 04:49:47;;;;;;;134.32;64.78;;;;;;;;;;5013699;28;20082;-83
2022/01/05 04:52:13;;;;;;;153.35;66.65;;;;;;;;;;5029443;28;20029;-81
2022/01/05 04:54:40;;;;;;;202.70;85.13;;;;;;;;;;5009906;28;20496;-81
2022/01/05 04:57:06;;;;;;;191.73;84.03;;;;;;;;;;5026270;28;20041;-84
2022/01/05 04:59:36;;;;;;;198.27;87.47;;;;;;;;;;5031839;28;20097;-82
2022/01/05 05:02:02;;;;;;;212.27;89.20;;;;;;;;;;5025318;28;20105;-83
2022/01/05 05:04:28;;;;;;;257.23;89.00;;;;;;;;;;5025278;28;20037;-85
2022/01/05 05:06:55;;;;;;;240.35;88.95;;;;;;;;;;5028534;28;20071;-82
2022/01/05 05:09:21;;;;;;;270.25;96.60;;;;;;;;;;5026495;28;20362;-83
2022/01/05 05:11:47;;;;;;;248.98;94.20;;;;;;;;;;5026734;28;20040;-82
2022/01/05 05:14:14;;;;;;;244.07;95.85;;;;;;;;;;5028409;28;20031;-85
2022/01/05 05:16:40;;;;;;;195.77;87.75;;;;;;;;;;5008659;28;20033;-85
2022/01/05 05:19:52;;;;;;;254.90;100.60;;;;;;;;;;5029769;28;20061;-83
2022/01/05 05:22:18;;;;;;;295.75;104.05;;;;;;;;;;5010420;28;20049;-83
2022/01/05 05:24:45;;;;;;;229.40;87.15;;;;;;;;;;5027696;28;20044;-81
2022/01/05 05:27:11;;;;;;;224.68;86.80;;;;;;;;;;5009328;28;20128;-83
2022/01/05 05:29:37;;;;;;;237.48;93.07;;;;;;;;;;5025796;28;20048;-82
2022/01/05 05:32:05;;;;;;;230.18;93.53;;;;;;;;;;5025615;28;20037;-83
2022/01/05 05:34:31;;;;;;;251.77;91.78;;;;;;;;;;5026996;28;20381;-82
2022/01/05 05:36:57;;;;;;;187.98;72.75;;;;;;;;;;5029600;28;20472;-83
2022/01/05 05:39:33;;;;;;;178.90;73.82;;;;;;;;;;5029029;28;20175;-83
2022/01/05 05:42:03;;;;;;;188.50;76.22;;;;;;;;;;5012786;28;20063;-83
2022/01/05 05:44:30;;;;;;;185.65;74.38;;;;;;;;;;5010501;28;20064;-83
2022/01/05 05:46:56;;;;;;;183.88;73.57;;;;;;;;;;5024890;28;20641;-86
2022/01/05 05:49:22;;;;;;;193.10;74.70;;;;;;;;;;5029402;28;20033;-83
2022/01/05 05:51:49;;;;;;;175.20;70.55;;;;;;;;;;5027645;28;20022;-83
2022/01/05 05:54:15;;;;;;;117.95;50.33;;;;;;;;;;5031023;28;20033;-81
2022/01/05 05:56:44;;;;;;;96.45;42.25;;;;;;;;;;5029818;28;20034;-85
2022/01/05 05:59:11;;;;;;;86.53;39.05;;;;;;;;;;5029581;28;20033;-84
2022/01/05 06:01:37;;;;;;;84.68;38.50;;;;;;;;;;5027344;28;20108;-84
2022/01/05 06:04:03;;;;;;;101.07;46.88;;;;;;;;;;5035175;28;20560;-83
2022/01/05 06:06:30;;;;;;;91.75;41.35;;;;;;;;;;5013482;28;20033;-84
2022/01/05 06:08:57;;;;;;;102.22;44.72;;;;;;;;;;5014290;28;20461;-84
2022/01/05 06:11:23;;;;;;;85.65;44.13;;;;;;;;;;5028412;28;20400;-84
2022/01/05 06:13:50;;;;;;;88.65;43.17;;;;;;;;;;5016841;28;20424;-85
2022/01/05 06:16:16;;;;;;;85.05;43.47;;;;;;;;;;5030492;28;20116;-85
2022/01/05 06:18:43;;;;;;;80.90;41.03;;;;;;;;;;5029467;28;20030;-85
2022/01/05 06:21:09;;;;;;;81.97;41.47;;;;;;;;;;5026660;28;20058;-83
2022/01/05 06:23:35;;;;;;;84.45;41.75;;;;;;;;;;5028759;28;20033;-83
2022/01/05 06:26:04;;;;;;;81.45;43.70;;;;;;;;;;5002951;28;20022;-82
2022/01/05 06:28:30;;;;;;;73.40;37.78;;;;;;;;;;5020635;28;20060;-82
2022/01/05 06:30:57;;;;;;;91.32;43.45;;;;;;;;;;5028913;28;20472;-84
2022/01/05 06:33:23;;;;;;;73.30;39.08;;;;;;;;;;5028733;28;20030;-81
2022/01/05 06:35:49;;;;;;;76.78;43.33;;;;;;;;;;5006232;28;20029;-84
2022/01/05 06:38:15;;;;;;;80.50;42.67;;;;;;;;;;5028400;28;20045;-84
2022/01/05 06:40:42;;;;;;;71.93;40.83;;;;;;;;;;5006876;28;20064;-85
2022/01/05 06:43:08;;;;;;;64.75;38.72;;;;;;;;;;5027007;28;20057;-85
2022/01/05 06:45:34;;;;;;;62.95;37.00;;;;;;;;;;5031280;28;20025;-82
2022/01/05 06:48:01;;;;;;;55.90;35.78;;;;;;;;;;5025564;28;20037;-83
2022/01/05 06:50:27;;;;;;;49.67;32.25;;;;;;;;;;5010343;28;20036;-83
2022/01/05 06:52:57;;;;;;;52.75;31.75;;;;;;;;;;5027107;28;20044;-84
2022/01/05 06:55:23;;;;;;;52.10;30.50;;;;;;;;;;5025441;28;20160;-84
2022/01/05 06:57:51;;;;;;;53.83;33.63;;;;;;;;;;5019567;28;20041;-84
2022/01/05 07:00:17;;;;;;;44.80;30.25;;;;;;;;;;5037689;28;20033;-83
2022/01/05 07:02:44;;;;;;;44.88;26.38;;;;;;;;;;5030620;28;20033;-85
2022/01/05 07:05:10;;;;;;;39.38;28.10;;;;;;;;;;5029775;28;20055;-83
2022/01/05 07:07:37;;;;;;;51.25;30.48;;;;;;;;;;5027258;28;20091;-84
2022/01/05 07:10:07;;;;;;;43.47;30.15;;;;;;;;;;5025905;28;20082;-82
2022/01/05 07:12:34;;;;;;;45.13;29.33;;;;;;;;;;5026645;28;20029;-84
2022/01/05 07:15:00;;;;;;;47.40;31.05;;;;;;;;;;5010797;28;20026;-85
2022/01/05 07:17:27;;;;;;;42.95;28.25;;;;;;;;;;5023708;28;20021;-84
2022/01/05 07:19:53;;;;;;;46.20;30.63;;;;;;;;;;5028490;28;20427;-85
2022/01/05 07:22:19;;;;;;;43.65;28.70;;;;;;;;;;5028637;28;20050;-84
2022/01/05 07:24:46;;;;;;;43.63;30.42;;;;;;;;;;5025886;28;20061;-84
2022/01/05 07:27:13;;;;;;;44.85;31.73;;;;;;;;;;5024522;28;20018;-88
2022/01/05 07:29:39;;;;;;;48.22;31.42;;;;;;;;;;5032378;28;20106;-85
2022/01/05 07:32:06;;;;;;;50.78;33.95;;;;;;;;;;5036840;28;20025;-86
2022/01/05 07:34:32;;;;;;;68.97;47.95;;;;;;;;;;5016575;28;20048;-83
2022/01/05 07:36:59;;;;;;;62.88;43.83;;;;;;;;;;5033436;28;20056;-84
2022/01/05 07:39:25;;;;;;;59.40;39.65;;;;;;;;;;5037657;28;20026;-85
2022/01/05 07:41:51;;;;;;;57.63;39.42;;;;;;;;;;5019902;28;20029;-84
2022/01/05 07:44:18;;;;;;;59.63;38.80;;;;;;;;;;5016271;28;20025;-83
2022/01/05 07:46:44;;;;;;;55.70;33.35;;;;;;;;;;5033854;28;20029;-84
2022/01/05 07:49:10;;;;;;;51.45;35.55;;;;;;;;;;5016313;28;20137;-85
2022/01/05 07:51:37;;;;;;;55.30;37.45;;;;;;;;;;5018786;28;20025;-85
2022/01/05 07:54:03;;;;;;;60.65;40.33;;;;;;;;;;5035607;28;20041;-84
2022/01/05 07:56:29;;;;;;;53.22;37.45;;;;;;;;;;5020004;28;20120;-85
2022/01/05 07:58:56;;;;;;;55.85;38.05;;;;;;;;;;5035044;28;20049;-85
2022/01/05 08:01:22;;;;;;;54.47;38.05;;;;;;;;;;5022600;28;20392;-84
2022/01/05 08:03:49;;;;;;;67.38;42.78;;;;;;;;;;5033879;28;20114;-83
2022/01/05 08:06:17;;;;;;;72.35;45.97;;;;;;;;;;5017608;28;20026;-84
2022/01/05 08:08:44;;;;;;;63.90;43.53;;;;;;;;;;5037293;28;20021;-83
2022/01/05 08:11:11;;;;;;;62.22;40.88;;;;;;;;;;5036354;28;20060;-83
2022/01/05 08:13:37;;;;;;;73.40;40.88;;;;;;;;;;5016416;28;20461;-84
2022/01/05 08:16:03;;;;;;;56.60;37.67;;;;;;;;;;5038495;28;20036;-81
2022/01/05 08:18:30;;;;;;;63.15;41.97;;;;;;;;;;5018197;28;20029;-82
2022/01/05 08:20:56;;;;;;;66.47;44.03;;;;;;;;;;5029481;28;20120;-84
2022/01/05 08:23:24;;;;;;;62.00;43.95;;;;;;;;;;5015294;28;20030;-85
2022/01/05 08:25:51;;;;;;;62.78;46.10;;;;;;;;;;5022896;28;20133;-83
2022/01/05 08:28:19;;;;;;;65.70;45.85;;;;;;;;;;5033037;28;20121;-83
2022/01/05 08:30:46;;;;;;;68.53;46.88;;;;;;;;;;5015285;28;20505;-83
2022/01/05 08:33:12;;;;;;;61.15;43.95;;;;;;;;;;5046729;28;20044;-84
2022/01/05 08:35:39;;;;;;;56.53;40.65;;;;;;;;;;5047748;28;20036;-84
2022/01/05 08:38:06;;;;;;;58.50;37.30;;;;;;;;;;5054940;28;20018;-84
2022/01/05 08:40:33;;;;;;;62.42;40.13;;;;;;;;;;5046740;28;20053;-82
2022/01/05 08:43:00;;;;;;;54.03;39.00;;;;;;;;;;5040201;28;20065;-84
2022/01/05 08:45:26;;;;;;;57.92;40.53;;;;;;;;;;5034643;28;20088;-83
2022/01/05 08:47:53;;;;;;;57.13;40.72;;;;;;;;;;5013795;28;20113;-83
2022/01/05 08:50:21;;;;;;;63.22;41.42;;;;;;;;;;5029780;28;20100;-82
2022/01/05 08:52:47;;;;;;;55.40;40.40;;;;;;;;;;5008531;28;20021;-84
2022/01/05 08:55:15;;;;;;;57.55;39.95;;;;;;;;;;5028731;28;20129;-83
2022/01/05 08:57:42;;;;;;;57.42;39.47;;;;;;;;;;5027567;28;20108;-84
2022/01/05 09:00:10;;;;;;;70.10;47.92;;;;;;;;;;5022925;28;20025;-83
2022/01/05 09:02:36;;;;;;;69.55;49.15;;;;;;;;;;5025454;28;20033;-85
2022/01/05 09:05:03;;;;;;;70.53;46.35;;;;;;;;;;5024036;28;20022;-84
2022/01/05 09:07:29;;;;;;;75.07;50.10;;;;;;;;;;5009254;28;20783;-83
2022/01/05 09:09:56;;;;;;;72.80;49.13;;;;;;;;;;5010181;28;20022;-86
2022/01/05 09:12:22;;;;;;;73.20;48.70;;;;;;;;;;5015824;28;20088;-82
2022/01/05 09:14:49;;;;;;;72.88;47.28;;;;;;;;;;5037249;28;20029;-84
2022/01/05 09:17:15;;;;;;;78.22;48.50;;;;;;;;;;5028157;28;20112;-87
2022/01/05 09:19:42;;;;;;;68.45;45.63;;;;;;;;;;5025289;28;20030;-84
2022/01/05 09:22:09;;;;;;;80.35;49.28;;;;;;;;;;5025287;28;20033;-84
2022/01/05 09:24:37;;;;;;;80.60;50.70;;;;;;;;;;5025181;28;20065;-85
2022/01/05 09:27:06;;;;;;;78.28;49.85;;;;;;;;;;5006843;28;20030;-84
2022/01/05 09:29:33;;;;;;;84.53;50.58;;;;;;;;;;5025699;28;20523;-83
2022/01/05 09:32:09;;;;;;;84.18;52.40;;;;;;;;;;5025996;28;20029;-84
2022/01/05 09:34:36;;;;;;;85.57;55.30;;;;;;;;;;5032088;28;20022;-84
2022/01/05 09:37:19;;;;;;;86.35;54.05;;;;;;;;;;5033250;28;20048;-82
2022/01/05 09:42:31;;;;;;;80.32;52.58;;;;;;;;;;5031471;28;20051;-83
2022/01/05 09:44:58;;;;;;;97.50;60.00;;;;;;;;;;5012572;28;20552;-85
2022/01/05 09:47:32;;;;;;;98.03;60.80;;;;;;;;;;5033013;28;20021;-85
2022/01/05 09:49:58;;;;;;;93.63;62.42;;;;;;;;;;5013993;28;20032;-83
2022/01/05 09:52:25;;;;;;;94.15;60.33;;;;;;;;;;5031857;28;20018;-82
2022/01/05 09:54:51;;;;;;;102.85;60.92;;;;;;;;;;5027731;28;20029;-82
2022/01/05 09:57:21;;;;;;;104.57;61.22;;;;;;;;;;5030761;28;20041;-81
2022/01/05 09:59:48;;;;;;;96.25;60.50;;;;;;;;;;5030721;28;20592;-83
2022/01/05 10:02:18;;;;;;;94.85;59.38;;;;;;;;;;5028250;28;20037;-85
2022/01/05 10:04:46;;;;;;;97.63;59.03;;;;;;;;;;5027243;28;20034;-82
2022/01/05 10:07:13;;;;;;;107.55;64.85;;;;;;;;;;5029439;28;20212;-85
2022/01/05 10:09:40;;;;;;;106.47;65.03;;;;;;;;;;5009427;28;20125;-83
2022/01/05 10:12:06;;;;;;;108.93;66.05;;;;;;;;;;5030001;28;20029;-83
2022/01/05 10:14:33;;;;;;;106.75;62.63;;;;;;;;;;5011025;28;20511;-85
2022/01/05 10:17:03;;;;;;;111.72;63.25;;;;;;;;;;5026668;28;20041;-84
2022/01/05 10:19:30;;;;;;;112.38;63.28;;;;;;;;;;5029898;28;20087;-84
2022/01/05 10:21:57;;;;;;;105.55;63.05;;;;;;;;;;5012606;28;20542;-85
2022/01/05 10:24:42;;;;;;;112.00;64.13;;;;;;;;;;5025872;28;20042;-84
2022/01/05 10:27:08;;;;;;;109.90;64.22;;;;;;;;;;5030237;28;20025;-85
2022/01/05 10:29:34;;;;;;;134.77;83.70;;;;;;;;;;5031737;28;20100;-83
2022/01/05 10:32:01;;;;;;;113.60;68.25;;;;;;;;;;5032872;28;20489;-84
2022/01/05 10:34:32;;;;;;;112.18;67.00;;;;;;;;;;5031457;28;20244;-84
2022/01/05 10:37:05;;;;;;;117.70;67.97;;;;;;;;;;5006102;28;20400;-85
2022/01/05 10:39:40;;;;;;;121.53;69.70;;;;;;;;;;5031276;28;20175;-82
2022/01/05 10:42:08;;;;;;;120.38;68.05;;;;;;;;;;5033519;28;20113;-84
2022/01/05 10:44:36;;;;;;;121.13;68.88;;;;;;;;;;5027291;28;20354;-83
2022/01/05 10:47:05;;;;;;;111.68;63.92;;;;;;;;;;5029177;28;20025;-83
2022/01/05 10:49:41;;;;;;;108.50;66.40;;;;;;;;;;5008875;28;20601;-84
2022/01/05 10:52:26;;;;;;;133.73;71.30;;;;;;;;;;5030431;28;20033;-83
2022/01/05 10:54:53;;;;;;;122.22;67.88;;;;;;;;;;5011006;28;20025;-85
2022/01/05 10:57:20;;;;;;;126.50;69.32;;;;;;;;;;5030633;28;20044;-85
2022/01/05 10:59:50;;;;;;;126.28;70.13;;;;;;;;;;5025501;28;20080;-84
2022/01/05 11:02:31;;;;;;;125.80;71.03;;;;;;;;;;5013064;28;20391;-82
2022/01/05 11:05:03;;;;;;;127.82;65.82;;;;;;;;;;5013939;28;20059;-83
2022/01/05 11:07:31;;;;;;;126.13;66.70;;;;;;;;;;5009524;28;20030;-84
2022/01/05 11:09:58;;;;;;;117.43;67.75;;;;;;;;;;5029841;28;20017;-83
2022/01/05 11:12:31;;;;;;;133.18;71.47;;;;;;;;;;5014673;28;20036;-83
2022/01/05 11:15:17;;;;;;;121.38;68.10;;;;;;;;;;5008404;28;20034;-84
2022/01/05 11:18:03;;;;;;;123.60;69.15;;;;;;;;;;5025638;28;20494;-84
2022/01/05 11:20:29;;;;;;;122.50;69.97;;;;;;;;;;5026818;28;20054;-82
2022/01/05 11:22:56;;;;;;;120.30;67.78;;;;;;;;;;5022364;28;20129;-84
2022/01/05 11:25:22;;;;;;;115.47;68.03;;;;;;;;;;5016517;28;20037;-83
2022/01/05 11:27:49;;;;;;;130.32;70.47;;;;;;;;;;5026354;28;20033;-85
2022/01/05 11:30:15;;;;;;;106.57;61.42;;;;;;;;;;5020390;28;20034;-83
2022/01/05 11:32:42;;;;;;;111.55;63.65;;;;;;;;;;5009437;28;20025;-82
2022/01/05 11:35:08;;;;;;;108.78;61.15;;;;;;;;;;5012620;28;20034;-84
2022/01/05 11:37:34;;;;;;;111.30;60.78;;;;;;;;;;5012869;28;20476;-85
2022/01/05 11:40:03;;;;;;;128.13;64.50;;;;;;;;;;5014247;28;20030;-82
2022/01/05 11:42:32;;;;;;;117.40;64.13;;;;;;;;;;5031620;28;20049;-84
2022/01/05 11:44:58;;;;;;;117.85;69.70;;;;;;;;;;5031657;28;20057;-84
2022/01/05 11:47:26;;;;;;;118.75;64.97;;;;;;;;;;5032404;28;20380;-85
2022/01/05 11:49:56;;;;;;;117.75;62.05;;;;;;;;;;5025771;28;20025;-84
2022/01/05 11:52:41;;;;;;;114.65;61.80;;;;;;;;;;5013002;28;20040;-82
2022/01/05 11:55:07;;;;;;;113.20;65.68;;;;;;;;;;5028826;28;20022;-85
2022/01/05 11:57:34;;;;;;;111.95;63.88;;;;;;;;;;5029601;28;20038;-85
2022/01/05 12:00:16;;;;;;;110.05;62.55;;;;;;;;;;5012956;28;20049;-83
2022/01/05 12:02:43;;;;;;;114.15;63.17;;;;;;;;;;5024802;28;20391;-84
2022/01/05 12:05:09;;;;;;;117.80;68.50;;;;;;;;;;5031245;28;20608;-84
2022/01/05 12:07:46;;;;;;;127.47;69.85;;;;;;;;;;5012423;28;20025;-84
2022/01/05 12:10:21;;;;;;;139.63;76.95;;;;;;;;;;5012575;28;20112;-84
2022/01/05 12:12:55;;;;;;;134.30;74.32;;;;;;;;;;5008900;28;20086;-83
2022/01/05 12:15:42;;;;;;;146.02;79.00;;;;;;;;;;5031014;28;20030;-83
2022/01/05 12:18:08;;;;;;;133.93;74.90;;;;;;;;;;5011122;28;20053;-85
2022/01/05 12:20:35;;;;;;;135.15;73.78;;;;;;;;;;5036740;28;20037;-86
2022/01/05 12:23:25;;;;;;;129.13;72.63;;;;;;;;;;5017452;28;20025;-84
2022/01/05 12:26:05;;;;;;;130.35;69.55;;;;;;;;;;5035756;28;20021;-84
2022/01/05 12:28:36;;;;;;;126.50;67.20;;;;;;;;;;5016426;28;20030;-85
2022/01/05 12:31:02;;;;;;;121.88;67.70;;;;;;;;;;5034804;28;20373;-84
2022/01/05 12:33:49;;;;;;;135.75;71.40;;;;;;;;;;5028667;28;20044;-85
2022/01/05 12:36:32;;;;;;;115.90;63.85;;;;;;;;;;5028982;28;20474;-83
2022/01/05 12:38:58;;;;;;;125.43;66.22;;;;;;;;;;5014181;28;20025;-84
2022/01/05 12:41:26;;;;;;;134.90;67.88;;;;;;;;;;5035029;28;20026;-82
2022/01/05 12:43:53;;;;;;;132.70;68.75;;;;;;;;;;5034563;28;20079;-83
2022/01/05 12:46:37;;;;;;;117.53;62.85;;;;;;;;;;5035428;28;20033;-83
2022/01/05 12:49:05;;;;;;;121.82;62.08;;;;;;;;;;5016123;28;20029;-84
2022/01/05 12:51:34;;;;;;;106.93;53.17;;;;;;;;;;5033589;28;20357;-85
2022/01/05 12:54:01;;;;;;;99.57;53.47;;;;;;;;;;5034232;28;20032;-84
2022/01/05 12:56:33;;;;;;;109.95;52.38;;;;;;;;;;5017640;28;20036;-84
2022/01/05 12:58:59;;;;;;;102.07;51.00;;;;;;;;;;5006255;28;20385;-84
2022/01/05 13:01:27;;;;;;;91.53;50.42;;;;;;;;;;5017075;28;20037;-84
2022/01/05 13:03:54;;;;;;;100.20;51.45;;;;;;;;;;5035072;28;20029;-83
2022/01/05 13:06:25;;;;;;;100.03;53.45;;;;;;;;;;5006068;28;20492;-83
2022/01/05 13:08:55;;;;;;;102.18;52.55;;;;;;;;;;5017325;28;20463;-85
2022/01/05 13:11:35;;;;;;;105.80;54.60;;;;;;;;;;5015643;28;20018;-82
2022/01/05 13:14:20;;;;;;;103.15;57.28;;;;;;;;;;5029051;28;20057;-84
2022/01/05 13:16:53;;;;;;;106.07;56.05;;;;;;;;;;5004492;28;20124;-85
2022/01/05 13:19:30;;;;;;;102.22;59.38;;;;;;;;;;5033872;28;20033;-83
2022/01/05 13:21:57;;;;;;;109.57;60.17;;;;;;;;;;5035700;28;20503;-84
2022/01/05 13:24:26;;;;;;;118.07;61.95;;;;;;;;;;5024260;28;20473;-82
2022/01/05 13:27:06;;;;;;;105.18;56.40;;;;;;;;;;5047891;28;20021;-83
2022/01/05 13:29:32;;;;;;;103.18;52.55;;;;;;;;;;5046934;28;20434;-83
2022/01/05 13:32:00;;;;;;;98.68;51.67;;;;;;;;;;5035206;28;20523;-84
2022/01/05 13:34:45;;;;;;;106.18;55.90;;;;;;;;;;5034255;28;20040;-83
2022/01/05 13:37:11;;;;;;;90.82;52.13;;;;;;;;;;5016499;28;20068;-84
2022/01/05 13:39:38;;;;;;;94.50;50.72;;;;;;;;;;5034477;28;20025;-84
2022/01/05 13:42:05;;;;;;;88.88;51.63;;;;;;;;;;5045912;28;20033;-83
2022/01/05 13:44:31;;;;;;;86.47;47.85;;;;;;;;;;5022646;28;20444;-82
2022/01/05 13:46:57;;;;;;;91.68;49.65;;;;;;;;;;5034290;28;20377;-82
2022/01/05 13:49:25;;;;;;;85.43;46.53;;;;;;;;;;5031552;28;20116;-85
2022/01/05 13:52:06;;;;;;;92.80;49.17;;;;;;;;;;5034054;28;20025;-84
2022/01/05 13:54:36;;;;;;;82.70;48.22;;;;;;;;;;5026950;28;20034;-84
2022/01/05 13:57:03;;;;;;;89.85;48.97;;;;;;;;;;5030227;28;20532;-83
2022/01/05 13:59:44;;;;;;;86.95;46.38;;;;;;;;;;5034539;28;20044;-84
2022/01/05 14:02:10;;;;;;;82.60;46.00;;;;;;;;;;5027633;28;20033;-84
2022/01/05 14:04:50;;;;;;;76.18;43.72;;;;;;;;;;5034029;28;20163;-85
2022/01/05 14:07:17;;;;;;;82.60;45.88;;;;;;;;;;5007238;28;20029;-84
2022/01/05 14:09:44;;;;;;;84.15;44.35;;;;;;;;;;5032704;28;20022;-83
2022/01/05 14:12:30;;;;;;;75.20;43.15;;;;;;;;;;5012910;28;20041;-85
2022/01/05 14:14:58;;;;;;;84.72;45.10;;;;;;;;;;5032983;28;20025;-83
2022/01/05 14:17:24;;;;;;;83.93;45.10;;;;;;;;;;5015411;28;20120;-83
2022/01/05 14:19:51;;;;;;;86.88;45.95;;;;;;;;;;5016573;28;20388;-83
2022/01/05 14:22:19;;;;;;;75.93;40.95;;;;;;;;;;5015683;28;20048;-82